• Join FlightAware (Why Join?)
  • Login
  • US Flag 
07:38AM EDT


 

Airport Tracker/Info


-or-


 

Live Flight TrackerFlight Track Log ✈ FFT920 ✈ 12-Jul-2013 ✈ KRDU - KTTN

Flight Track Log - Related Links

Times and Time Zones

All times are in EDT time to prevent confusion due to time zone crossing. See the FFT920 flight status page for this flight to view local times or setup timezone preferences in your user account.

Time Position Orientation Groundspeed Altitude Reporting Facility
EDT Latitude Longitude Course Direction KTS MPH feet Rate Location/Type
08:44AM 35.8380 -78.8860 263° West 242 278 3,600  Level FlightAware
08:44AM 35.8540 -78.9240 297° West 262 302 5,100 3,000 Climbing FlightAware
08:44AM 35.8670 -78.9320 333° Northwest 264 304 5,800 3,300 Climbing FlightAware
08:45AM 35.8940 -78.9370 351° North 268 308 7,100 3,060 Climbing FlightAware
08:46AM 35.9530 -78.9200 13° North 297 342 9,300 2,820 Climbing FlightAware
08:46AM 36.0040 -78.8840 30° Northeast 313 360 11,300 2,340 Climbing FlightAware
08:47AM 36.0520 -78.8520 28° Northeast 347 399 12,400 2,100 Climbing FlightAware
08:48AM 36.1120 -78.8080 31° Northeast 367 422 14,100 2,520 Climbing FlightAware
08:48AM 36.1810 -78.7590 30° Northeast 377 434 16,000 2,400 Climbing FlightAware
08:49AM 36.2500 -78.7110 29° Northeast 392 451 17,600 2,160 Climbing FlightAware
08:50AM 36.3150 -78.6640 30° Northeast 404 465 19,100 2,220 Climbing FlightAware
08:50AM 36.3830 -78.6160 30° Northeast 407 468 20,700 2,040 Climbing FlightAware
08:51AM 36.4620 -78.5740 23° Northeast 421 484 22,000 1,620 Climbing FlightAware
08:52AM 36.5290 -78.5500 16° North 435 501 22,900 900 Climbing FlightAware
08:52AM 36.6000 -78.5250 16° North 440 506 23,200 180 Climbing FlightAware
08:53AM 36.6600 -78.5040 16° North 440 506 23,200  Level FlightAware
08:54AM 36.7190 -78.4820 17° North 440 506 23,200  Level FlightAware
08:55AM 36.8210 -78.4460 16° North 440 506 23,200  Level FlightAware
08:55AM 36.8810 -78.4240 16° North 440 506 23,200 4,800 Level FlightAware
08:56AM 37.0100 -78.2580 46° Northeast 465 535 30,000 5,280 Climbing FlightAware
08:57AM 37.0770 -78.2030 33° Northeast 461 531 30,900 660 Climbing FlightAware
08:57AM 37.1510 -78.1430 33° Northeast 458 527 31,000  Climbing FlightAware
08:59AM 37.2850 -78.0330 33° Northeast 459 528 31,000  Level FlightAware
08:59AM 37.3610 -77.9700 33° Northeast 457 526 31,000  Level FlightAware
09:00AM 37.4410 -77.9030 34° Northeast 455 524 31,000  Level FlightAware
09:01AM 37.5000 -77.8520 34° Northeast 454 522 31,000  Level FlightAware
09:01AM 37.5720 -77.7900 34° Northeast 451 519 31,000 -180 Level FlightAware
09:02AM 37.6420 -77.7260 36° Northeast 451 519 30,800 -360 Descending FlightAware
09:03AM 37.7150 -77.6590 36° Northeast 451 519 30,500 -480 Descending FlightAware
09:03AM 37.7800 -77.6010 35° Northeast 448 516 30,200 -360 Descending FlightAware
09:04AM 37.8570 -77.5300 36° Northeast 445 512 30,000 -180 Descending FlightAware
09:05AM 37.9240 -77.4690 36° Northeast 446 513 30,000  Level FlightAware
09:06AM 37.9950 -77.4050 35° Northeast 447 514 30,000  Level FlightAware
09:06AM 38.0550 -77.3490 36° Northeast 448 516 30,000  Level FlightAware
09:07AM 38.1290 -77.2820 35° Northeast 449 517 30,000  Level FlightAware
09:08AM 38.1990 -77.2170 36° Northeast 450 518 30,000  Level FlightAware
09:08AM 38.2670 -77.1540 36° Northeast 448 516 30,000  Level FlightAware
09:09AM 38.3370 -77.0890 36° Northeast 447 514 30,000  Level FlightAware
09:10AM 38.4050 -77.0260 36° Northeast 445 512 30,000  Level FlightAware
09:10AM 38.4800 -76.9560 36° Northeast 444 511 30,000 -960 Level FlightAware
09:11AM 38.5620 -76.8800 36° Northeast 459 528 28,500 -2,400 Descending FlightAware
09:12AM 38.6320 -76.8140 36° Northeast 464 534 26,400 -3,300 Descending FlightAware
09:13AM 38.6980 -76.7410 41° Northeast 462 532 24,100 -2,760 Descending FlightAware
09:13AM 38.7240 -76.6540 69° East 435 501 22,900 -1,800 Descending FlightAware
09:14AM 38.7630 -76.5470 65° Northeast 439 505 21,700 -1,500 Descending FlightAware
09:15AM 38.8040 -76.4770 53° Northeast 423 487 20,900 -1,500 Descending FlightAware
09:15AM 38.8530 -76.3950 52° Northeast 398 458 19,800 -1,260 Descending FlightAware
09:16AM 38.8950 -76.3240 53° Northeast 379 436 19,200 -1,020 Descending FlightAware
09:17AM 38.9350 -76.2560 53° Northeast 370 426 18,500 -1,020 Descending FlightAware
09:17AM 38.9810 -76.1760 53° Northeast 367 422 17,800 -1,020 Descending FlightAware
09:18AM 39.0220 -76.1060 53° Northeast 358 412 17,100 -1,020 Descending FlightAware
09:19AM 39.0660 -76.0310 53° Northeast 349 402 16,400 -1,020 Descending FlightAware
09:19AM 39.1050 -75.9640 53° Northeast 352 405 15,700 -1,140 Descending FlightAware
09:20AM 39.1390 -75.9050 53° Northeast 345 397 15,000 -1,320 Descending FlightAware
09:21AM 39.1780 -75.8380 53° Northeast 339 390 14,000 -1,380 Descending FlightAware
09:21AM 39.2150 -75.7730 54° Northeast 327 376 13,100 -1,260 Descending FlightAware
09:22AM 39.2560 -75.7030 53° Northeast 302 348 12,200 -1,080 Descending FlightAware
09:23AM 39.2870 -75.6530 51° Northeast 284 327 11,600 -1,080 Descending FlightAware
09:23AM 39.3350 -75.6100 35° Northeast 275 316 10,800 -1,020 Descending FlightAware
09:24AM 39.3750 -75.5750 34° Northeast 275 316 10,200 -900 Descending FlightAware
09:24AM 39.3950 -75.5620 27° Northeast 275 316 10,000 -420 Descending FlightAware
09:25AM 39.4360 -75.5470 16° North 287 330 9,900 -120 Descending FlightAware
09:25AM 39.4640 -75.5270 29° Northeast 284 327 9,900  Level FlightAware
09:26AM 39.5000 -75.5000 30° Northeast 285 328 9,900 -120 Level FlightAware
09:26AM 39.5270 -75.4790 31° Northeast 284 327 9,800 -480 Descending FlightAware
09:27AM 39.5560 -75.4570 30° Northeast 284 327 9,500 -540 Descending FlightAware
09:27AM 39.5910 -75.4300 31° Northeast 283 326 9,300 -480 Descending FlightAware
09:28AM 39.6190 -75.4080 31° Northeast 281 323 9,100 -480 Descending FlightAware
09:28AM 39.6520 -75.3820 31° Northeast 280 322 8,900 -300 Descending FlightAware
09:28AM 39.6630 -75.3730 32° Northeast 281 323 8,900  Level FlightAware
09:29AM 39.6910 -75.3520 30° Northeast 281 323 8,900  Level FlightAware
09:29AM 39.7220 -75.3270 32° Northeast 280 322 8,900  Level FlightAware
09:29AM 39.7410 -75.3130 30° Northeast 280 322 8,900 -420 Level FlightAware
09:30AM 39.7560 -75.3010 32° Northeast 278 320 8,700 -1,380 Descending FlightAware
09:30AM 39.7890 -75.2750 31° Northeast 270 311 7,900 -1,560 Descending FlightAware
09:30AM 39.8110 -75.2590 29° Northeast 269 310 7,400 -1,500 Descending FlightAware
09:31AM 39.8310 -75.2420 33° Northeast 266 306 6,900 -1,500 Descending FlightAware
09:31AM 39.8740 -75.2090 30° Northeast 271 312 6,000 -960 Descending FlightAware
09:32AM 39.9030 -75.1860 31° Northeast 273 314 5,900 -120 Descending FlightAware
09:32AM 39.9340 -75.1610 32° Northeast 271 312 5,900  Level FlightAware
09:33AM 39.9450 -75.1530 29° Northeast 270 311 5,900  Level FlightAware
09:33AM 39.9740 -75.1300 31° Northeast 244 281 5,900  Level FlightAware
09:33AM 40.0020 -75.1080 31° Northeast 237 273 5,900 -240 Level FlightAware
09:34AM 40.0240 -75.0910 31° Northeast 233 268 5,700 -900 Descending FlightAware
09:34AM 40.0520 -75.0690 31° Northeast 229 264 5,100 -1,260 Descending FlightAware
09:35AM 40.0810 -75.0460 31° Northeast 228 262 4,400 -1,440 Descending FlightAware
09:35AM 40.0940 -75.0350 33° Northeast 229 264 4,000 -1,440 Descending FlightAware
09:36AM 40.1140 -75.0200 30° Northeast 224 258 3,500 -1,020 Descending FlightAware
09:36AM 40.1420 -74.9960 33° Northeast 205 236 3,100 -720 Descending FlightAware
09:36AM 40.1560 -74.9770 46° Northeast 190 219 2,900 -540 Descending FlightAware
09:37AM 40.1760 -74.9500 46° Northeast 168 193 2,600 -600 Descending FlightAware
09:37AM 40.1880 -74.9330 47° Northeast 162 186 2,300 -420 Descending FlightAware
09:38AM 40.1990 -74.9190 44° Northeast 162 186 2,300 -840 Level FlightAware
09:38AM 40.2170 -74.8940 47° Northeast 140 161 1,500 -780 Descending FlightAware
09:39AM 40.2320 -74.8740 46° Northeast 140 161 1,400 -540 Descending FlightAware
09:40AM 40.2500 -74.8500 46° Northeast 114 131 700 -840 Descending Philadelphia TRACON